Terminal Aerodrome Forecast
Issued by NWS

Home | Current Version | Previous Version | Text Only | Print | Product List | Glossary On
Versions: 1 2 3 4 5 6 7 8 9 10 11 12 13 14 15 16 17 18 19
000
FTUS44 KLIX 020520
TAFMSY
TAF
KMSY 020520Z 0206/0306 00000KT P6SM SCT070 BKN110
     FM021400 14006KT P6SM VCTS SCT025CB BKN150
     FM021600 12010G25KT P6SM TSRA BKN025CB
     FM021800 19007KT P6SM -SHRA BKN035 OVC130
     FM022100 22007KT P6SM -RA BKN035 OVC150=

USA.gov is the U.S. government's official web portal to all federal, state and local government web resources and services.